createdAt,value
2022-07-25T00:00:28.212Z,25.05
2022-07-25T00:02:55.176Z,25.01
2022-07-25T00:05:22.445Z,24.94
2022-07-25T00:07:50.559Z,24.75
2022-07-25T00:10:17.883Z,24.68
2022-07-25T00:12:45.171Z,24.67
2022-07-25T00:15:13.086Z,24.67
2022-07-25T00:17:40.416Z,24.70
2022-07-25T00:20:09.484Z,24.63
2022-07-25T00:22:36.563Z,24.59
2022-07-25T00:25:04.167Z,24.58
2022-07-25T00:27:31.164Z,24.50
2022-07-25T00:29:58.314Z,24.50
2022-07-25T00:32:25.308Z,24.51
2022-07-25T00:34:52.364Z,24.36
2022-07-25T00:37:19.335Z,24.08
2022-07-25T00:39:46.444Z,24.02
2022-07-25T00:42:13.347Z,23.99
2022-07-25T00:44:40.401Z,23.96
2022-07-25T00:47:07.493Z,23.88
2022-07-25T00:49:34.761Z,23.99
2022-07-25T00:52:01.926Z,24.07
2022-07-25T00:54:29.566Z,24.03
2022-07-25T00:56:56.605Z,23.97
2022-07-25T00:59:23.730Z,23.91
2022-07-25T01:01:50.805Z,23.97
2022-07-25T01:04:18.133Z,24.04
2022-07-25T01:06:45.244Z,24.02
2022-07-25T01:09:12.366Z,23.92
2022-07-25T01:11:40.530Z,23.93
2022-07-25T01:14:08.017Z,23.97
2022-07-25T01:16:35.405Z,23.94
2022-07-25T01:19:02.443Z,23.88
2022-07-25T01:21:29.491Z,23.90
2022-07-25T01:23:56.605Z,23.77
2022-07-25T01:26:23.652Z,23.83
2022-07-25T01:28:50.694Z,23.78
2022-07-25T01:31:18.030Z,23.75
2022-07-25T01:33:45.351Z,23.68
2022-07-25T01:36:12.532Z,23.65
2022-07-25T01:38:39.616Z,23.59
2022-07-25T01:41:06.941Z,23.53
2022-07-25T01:43:34.076Z,23.53
2022-07-25T01:46:01.484Z,23.48
2022-07-25T01:48:29.124Z,23.40
2022-07-25T01:50:56.203Z,23.35
2022-07-25T01:53:24.716Z,23.30
2022-07-25T01:55:53.402Z,23.05
2022-07-25T01:58:21.508Z,22.89
2022-07-25T02:00:49.007Z,22.77
2022-07-25T02:03:31.487Z,22.76
2022-07-25T02:05:59.593Z,22.88
2022-07-25T02:08:26.734Z,22.89
2022-07-25T02:10:54.042Z,22.89
2022-07-25T02:13:21.441Z,22.95
2022-07-25T02:15:48.843Z,23.03
2022-07-25T02:18:16.375Z,23.04
2022-07-25T02:20:44.020Z,23.13
2022-07-25T02:23:11.162Z,23.11
2022-07-25T02:25:38.756Z,23.05
2022-07-25T02:28:06.076Z,23.05
2022-07-25T02:30:33.352Z,23.06
2022-07-25T02:33:00.443Z,23.04
2022-07-25T02:35:27.418Z,23.03
2022-07-25T02:37:54.349Z,23.01
2022-07-25T02:40:21.613Z,22.96
2022-07-25T02:42:48.691Z,22.91
2022-07-25T02:45:15.703Z,22.90
2022-07-25T02:47:42.867Z,22.92
2022-07-25T02:50:14.582Z,22.88
2022-07-25T02:52:42.588Z,22.86
2022-07-25T02:55:10.641Z,22.87
2022-07-25T02:57:37.730Z,22.83
2022-07-25T03:00:07.364Z,22.75
2022-07-25T03:02:35.334Z,22.72
2022-07-25T03:05:03.169Z,22.75
2022-07-25T03:07:30.203Z,22.75
2022-07-25T03:09:57.083Z,22.70
2022-07-25T03:12:24.057Z,22.66
2022-07-25T03:14:51.362Z,22.54
2022-07-25T03:17:18.302Z,22.46
2022-07-25T03:19:45.235Z,22.31
2022-07-25T03:22:12.257Z,22.34
2022-07-25T03:24:39.223Z,22.30
2022-07-25T03:27:06.233Z,22.34
2022-07-25T03:29:33.246Z,22.30
2022-07-25T03:32:00.735Z,22.33
2022-07-25T03:34:28.358Z,22.31
2022-07-25T03:36:55.402Z,22.18
2022-07-25T03:39:22.647Z,22.12
2022-07-25T03:41:49.723Z,21.98
2022-07-25T03:44:16.712Z,21.98
2022-07-25T03:46:43.723Z,21.99
2022-07-25T03:49:10.986Z,21.86
2022-07-25T03:51:38.134Z,21.97
2022-07-25T03:54:06.632Z,22.00
2022-07-25T03:56:43.433Z,22.09
2022-07-25T03:59:13.757Z,22.18
2022-07-25T04:01:41.605Z,22.19
2022-07-25T04:04:10.112Z,22.25
2022-07-25T04:06:38.542Z,22.29
2022-07-25T04:09:07.512Z,22.35
2022-07-25T04:11:36.001Z,22.36
2022-07-25T04:14:03.289Z,22.36
2022-07-25T04:16:30.764Z,22.35
2022-07-25T04:18:58.074Z,22.26
2022-07-25T04:21:26.843Z,22.31
2022-07-25T04:23:53.963Z,22.37
2022-07-25T04:26:20.903Z,22.45
2022-07-25T04:28:47.882Z,22.54
2022-07-25T04:31:15.005Z,22.57
2022-07-25T04:33:42.796Z,22.58
2022-07-25T04:36:10.578Z,22.57
2022-07-25T04:38:37.647Z,22.56
2022-07-25T04:41:05.077Z,22.56
2022-07-25T04:43:32.211Z,22.56
2022-07-25T04:45:59.763Z,22.62
2022-07-25T04:48:27.251Z,22.59
2022-07-25T04:50:54.530Z,22.55
2022-07-25T04:53:21.460Z,22.57
2022-07-25T04:55:48.483Z,22.53
2022-07-25T04:58:15.837Z,22.57
2022-07-25T05:00:42.986Z,22.39
2022-07-25T05:03:10.576Z,22.27
2022-07-25T05:05:37.934Z,22.30
2022-07-25T05:08:05.236Z,22.33
2022-07-25T05:10:32.241Z,22.60
2022-07-25T05:12:59.328Z,22.69
2022-07-25T05:15:26.359Z,22.68
2022-07-25T05:17:53.616Z,22.62
2022-07-25T05:20:20.577Z,22.66
2022-07-25T05:22:47.635Z,22.87
2022-07-25T05:25:14.522Z,22.99
2022-07-25T05:27:41.690Z,23.27
2022-07-25T05:30:10.526Z,23.34
2022-07-25T05:32:38.364Z,23.49
2022-07-25T05:35:08.159Z,23.64
2022-07-25T05:37:36.896Z,23.70
2022-07-25T05:40:05.642Z,23.95
2022-07-25T05:42:32.760Z,24.06
2022-07-25T05:45:00.414Z,24.21
2022-07-25T05:47:27.432Z,24.27
2022-07-25T05:49:54.603Z,24.46
2022-07-25T05:52:21.689Z,24.50
2022-07-25T05:54:48.659Z,24.65
2022-07-25T05:57:15.613Z,24.83
2022-07-25T05:59:42.532Z,24.90
2022-07-25T06:02:10.131Z,24.99
2022-07-25T06:04:37.208Z,25.08
2022-07-25T06:07:04.202Z,25.04
2022-07-25T06:09:32.165Z,25.08
2022-07-25T06:12:01.145Z,24.98
2022-07-25T06:14:29.252Z,24.97
2022-07-25T06:16:57.140Z,25.24
2022-07-25T06:19:24.125Z,25.61
2022-07-25T06:21:51.415Z,25.70
2022-07-25T06:24:18.559Z,25.96
2022-07-25T06:26:45.582Z,26.13
2022-07-25T06:29:12.551Z,26.05
2022-07-25T06:31:39.687Z,25.96
2022-07-25T06:34:07.426Z,25.96
2022-07-25T06:36:35.066Z,26.19
2022-07-25T06:39:02.548Z,26.50
2022-07-25T06:41:29.674Z,26.75
2022-07-25T06:43:56.695Z,26.84
2022-07-25T06:46:23.749Z,26.82
2022-07-25T06:48:50.859Z,26.69
2022-07-25T06:51:18.013Z,26.81
2022-07-25T06:53:44.892Z,26.98
2022-07-25T06:56:17.214Z,27.30
2022-07-25T06:58:45.042Z,27.21
2022-07-25T07:01:12.175Z,27.23
2022-07-25T07:03:40.508Z,27.60
2022-07-25T07:06:09.646Z,28.05
2022-07-25T07:08:37.995Z,28.45
2022-07-25T07:11:06.310Z,28.74
2022-07-25T07:13:34.222Z,28.64
2022-07-25T07:16:01.549Z,28.77
2022-07-25T07:18:28.732Z,28.76
2022-07-25T07:20:55.675Z,28.79
2022-07-25T07:23:22.790Z,28.77
2022-07-25T07:25:51.999Z,28.79
2022-07-25T07:28:20.305Z,29.15
2022-07-25T07:33:34.837Z,29.76
2022-07-25T07:36:02.449Z,29.99
2022-07-25T07:38:29.830Z,29.71
2022-07-25T07:40:56.875Z,29.96
2022-07-25T07:43:29.422Z,30.47
2022-07-25T07:45:59.519Z,30.53
2022-07-25T07:48:27.742Z,30.61
2022-07-25T07:50:54.784Z,30.29
2022-07-25T07:53:23.837Z,30.53
2022-07-25T07:55:55.470Z,30.82
2022-07-25T07:58:22.601Z,31.23
2022-07-25T08:00:52.204Z,31.18
2022-07-25T08:03:21.272Z,31.33
2022-07-25T08:05:49.135Z,31.43
2022-07-25T08:08:16.625Z,31.71
2022-07-25T08:10:48.712Z,31.78
2022-07-25T08:13:18.370Z,32.26
2022-07-25T08:15:49.022Z,32.36
2022-07-25T08:18:17.543Z,32.01
2022-07-25T08:20:49.275Z,32.26
2022-07-25T08:23:17.408Z,32.42
2022-07-25T08:25:45.894Z,32.74
2022-07-25T08:28:13.994Z,33.03
2022-07-25T08:30:42.151Z,33.20
2022-07-25T08:33:13.349Z,32.92
2022-07-25T08:35:42.092Z,33.06
2022-07-25T08:38:11.818Z,33.11
2022-07-25T08:40:39.228Z,33.54
2022-07-25T08:43:06.527Z,33.54
2022-07-25T08:45:34.157Z,33.72
2022-07-25T08:48:01.123Z,33.91
2022-07-25T08:50:29.970Z,33.97
2022-07-25T08:53:22.989Z,33.58
2022-07-25T08:55:45.974Z,33.60
2022-07-25T08:58:14.931Z,33.66
2022-07-25T09:00:42.534Z,33.64
2022-07-25T09:03:10.005Z,33.85
2022-07-25T09:05:38.197Z,34.03
2022-07-25T09:08:11.630Z,34.29
2022-07-25T09:10:42.505Z,34.47
2022-07-25T09:13:15.537Z,34.74
2022-07-25T09:15:55.604Z,35.00
2022-07-25T09:18:25.858Z,34.89
2022-07-25T09:20:53.672Z,34.82
2022-07-25T09:23:34.986Z,34.85
2022-07-25T09:26:05.132Z,35.16
2022-07-25T09:28:32.210Z,35.66
2022-07-25T09:31:01.048Z,35.74
2022-07-25T09:33:30.789Z,34.57
2022-07-25T09:35:58.299Z,34.78
2022-07-25T09:38:25.754Z,34.74
2022-07-25T09:41:01.679Z,34.96
2022-07-25T09:43:39.082Z,34.90
2022-07-25T09:46:07.360Z,34.28
2022-07-25T09:48:35.755Z,34.12
2022-07-25T09:51:03.804Z,34.54
2022-07-25T09:53:30.923Z,34.87
2022-07-25T09:55:58.159Z,35.15
2022-07-25T09:58:27.168Z,35.50
2022-07-25T10:01:06.816Z,35.81
2022-07-25T10:03:39.823Z,36.00
2022-07-25T10:06:21.085Z,36.16
2022-07-25T10:08:50.052Z,35.98
2022-07-25T10:11:20.835Z,35.65
2022-07-25T10:13:48.112Z,35.16
2022-07-25T10:16:26.399Z,34.94
2022-07-25T10:18:58.873Z,34.28
2022-07-25T10:21:28.541Z,34.88
2022-07-25T10:24:07.771Z,35.54
2022-07-25T10:26:51.161Z,35.87
2022-07-25T10:29:18.874Z,35.92
2022-07-25T10:31:51.003Z,35.50
2022-07-25T10:34:31.020Z,34.93
2022-07-25T10:37:12.858Z,34.72
2022-07-25T10:39:42.162Z,34.73
2022-07-25T10:42:13.956Z,34.85
2022-07-25T10:44:44.042Z,34.99
2022-07-25T10:47:13.897Z,35.47
2022-07-25T10:50:13.840Z,35.62
2022-07-25T10:52:41.811Z,35.30
2022-07-25T10:55:09.359Z,35.17
2022-07-25T10:57:45.131Z,35.56
2022-07-25T11:00:22.288Z,36.23
2022-07-25T11:02:50.535Z,36.75
2022-07-25T11:05:17.570Z,36.79
2022-07-25T11:08:20.171Z,36.70
2022-07-25T11:10:47.102Z,37.24
2022-07-25T11:13:17.405Z,37.60
2022-07-25T11:15:45.017Z,37.74
2022-07-25T11:18:12.362Z,37.53
2022-07-25T11:20:39.596Z,37.45
2022-07-25T11:23:06.909Z,37.17
2022-07-25T11:25:34.076Z,37.10
2022-07-25T11:28:02.070Z,37.26
2022-07-25T11:30:32.627Z,37.34
2022-07-25T11:33:03.400Z,37.10
2022-07-25T11:35:33.530Z,37.26
2022-07-25T11:38:02.565Z,37.95
2022-07-25T11:40:31.161Z,38.36
2022-07-25T11:42:59.909Z,38.74
2022-07-25T11:45:29.709Z,38.25
2022-07-25T11:48:13.762Z,38.15
2022-07-25T11:50:43.703Z,37.53
2022-07-25T11:53:16.761Z,38.16
2022-07-25T11:55:44.048Z,37.88
2022-07-25T11:58:13.697Z,37.89
2022-07-25T12:00:43.196Z,38.03
2022-07-25T12:03:17.193Z,38.12
2022-07-25T12:05:47.814Z,38.31
2022-07-25T12:08:16.890Z,38.49
2022-07-25T12:10:47.440Z,38.32
2022-07-25T12:13:25.873Z,38.35
2022-07-25T12:15:53.760Z,38.17
2022-07-25T12:18:20.720Z,38.04
2022-07-25T12:20:47.761Z,37.88
2022-07-25T12:23:15.321Z,38.00
2022-07-25T12:25:45.360Z,37.92
2022-07-25T12:28:13.151Z,37.83
2022-07-25T12:30:44.141Z,37.90
2022-07-25T12:33:12.020Z,38.22
2022-07-25T12:35:41.448Z,37.95
2022-07-25T12:38:09.442Z,37.81
2022-07-25T12:40:36.319Z,38.07
2022-07-25T12:43:05.225Z,37.97
2022-07-25T12:45:32.279Z,37.98
2022-07-25T12:47:59.697Z,37.89
2022-07-25T12:50:26.831Z,37.81
2022-07-25T12:52:54.492Z,37.56
2022-07-25T12:55:22.440Z,37.62
2022-07-25T12:57:50.162Z,38.10
2022-07-25T13:00:20.084Z,38.49
2022-07-25T13:02:48.630Z,39.00
2022-07-25T13:05:15.748Z,39.03
2022-07-25T13:07:42.795Z,38.86
2022-07-25T13:10:10.085Z,39.07
2022-07-25T13:12:37.136Z,39.16
2022-07-25T13:15:04.560Z,39.43
2022-07-25T13:17:32.647Z,39.47
2022-07-25T13:20:00.654Z,39.52
2022-07-25T13:22:27.921Z,39.47
2022-07-25T13:24:55.030Z,39.31
2022-07-25T13:27:22.905Z,39.19
2022-07-25T13:29:58.144Z,39.03
2022-07-25T13:32:26.879Z,39.13
2022-07-25T13:34:54.008Z,38.89
2022-07-25T13:37:21.199Z,38.66
2022-07-25T13:39:48.254Z,38.72
2022-07-25T13:42:15.413Z,38.67
2022-07-25T13:44:42.790Z,38.47
2022-07-25T13:47:09.928Z,37.93
2022-07-25T13:49:37.611Z,38.08
2022-07-25T13:52:05.482Z,38.09
2022-07-25T13:54:33.045Z,38.00
2022-07-25T13:57:01.950Z,38.06
2022-07-25T13:59:30.319Z,38.02
2022-07-25T14:02:01.869Z,38.12
2022-07-25T14:04:35.101Z,37.96
2022-07-25T14:07:05.858Z,38.27
2022-07-25T14:09:34.375Z,38.52
2022-07-25T14:12:02.000Z,38.80
2022-07-25T14:14:30.569Z,39.13
2022-07-25T14:16:59.405Z,39.15
2022-07-25T14:19:34.116Z,38.82
2022-07-25T14:22:06.252Z,38.54
2022-07-25T14:24:39.121Z,38.54
2022-07-25T14:27:10.664Z,38.18
2022-07-25T14:29:41.761Z,37.83
2022-07-25T14:32:13.170Z,37.69
2022-07-25T14:34:40.712Z,37.61
2022-07-25T14:37:08.224Z,37.68
2022-07-25T14:39:35.509Z,37.68
2022-07-25T14:42:02.934Z,37.74
2022-07-25T14:44:30.004Z,37.84
2022-07-25T14:46:57.639Z,38.03
2022-07-25T14:49:25.721Z,38.00
2022-07-25T14:51:52.778Z,38.08
2022-07-25T14:54:19.797Z,38.03
2022-07-25T14:56:46.720Z,37.82
2022-07-25T14:59:13.851Z,37.31
2022-07-25T15:01:41.061Z,37.41
2022-07-25T15:04:08.321Z,37.60
2022-07-25T15:06:36.172Z,37.56
2022-07-25T15:09:03.590Z,37.50
2022-07-25T15:11:31.037Z,37.31
2022-07-25T15:13:58.064Z,37.27
2022-07-25T15:16:25.285Z,37.20
2022-07-25T15:19:15.200Z,37.05
2022-07-25T15:21:39.360Z,36.97
2022-07-25T15:24:07.132Z,36.95
2022-07-25T15:26:34.161Z,36.96
2022-07-25T15:29:01.257Z,37.00
2022-07-25T15:31:28.654Z,37.02
2022-07-25T15:33:55.769Z,37.07
2022-07-25T15:36:28.815Z,36.65
2022-07-25T15:38:56.872Z,36.63
2022-07-25T15:41:23.927Z,36.33
2022-07-25T15:43:51.104Z,36.35
2022-07-25T15:46:18.289Z,36.27
2022-07-25T15:48:45.918Z,36.19
2022-07-25T15:51:16.998Z,36.09
2022-07-25T15:53:44.298Z,36.37
2022-07-25T15:56:15.279Z,36.21
2022-07-25T15:58:42.401Z,36.22
2022-07-25T16:01:09.667Z,36.28
2022-07-25T16:03:37.289Z,36.31
2022-07-25T16:06:04.764Z,36.23
2022-07-25T16:08:32.239Z,35.98
2022-07-25T16:11:00.306Z,36.11
2022-07-25T16:13:28.154Z,36.04
2022-07-25T16:15:55.974Z,36.07
2022-07-25T16:18:23.274Z,35.96
2022-07-25T16:20:50.224Z,35.97
2022-07-25T16:23:17.353Z,36.03
2022-07-25T16:25:44.383Z,36.10
2022-07-25T16:28:11.344Z,36.17
2022-07-25T16:30:38.234Z,36.06
2022-07-25T16:33:05.554Z,36.00
2022-07-25T16:35:32.931Z,35.78
2022-07-25T16:38:00.563Z,35.65
2022-07-25T16:40:30.893Z,35.53
2022-07-25T16:42:59.457Z,35.49
2022-07-25T16:45:27.371Z,35.47
2022-07-25T16:47:54.950Z,35.44
2022-07-25T16:50:22.300Z,35.35
2022-07-25T16:52:50.924Z,35.14
2022-07-25T16:55:17.971Z,35.21
2022-07-25T16:57:44.927Z,35.10
2022-07-25T17:00:12.686Z,35.02
2022-07-25T17:02:40.096Z,35.07
2022-07-25T17:05:07.454Z,35.05
2022-07-25T17:07:35.066Z,35.02
2022-07-25T17:10:03.139Z,34.93
2022-07-25T17:12:30.288Z,34.68
2022-07-25T17:14:57.295Z,34.66
2022-07-25T17:17:24.351Z,34.66
2022-07-25T17:19:53.309Z,34.56
2022-07-25T17:22:23.844Z,34.71
2022-07-25T17:24:51.001Z,34.49
2022-07-25T17:27:18.041Z,34.52
2022-07-25T17:29:45.131Z,34.21
2022-07-25T17:32:12.243Z,34.08
2022-07-25T17:34:39.301Z,34.27
2022-07-25T17:37:07.158Z,34.31
2022-07-25T17:39:34.847Z,34.37
2022-07-25T17:42:02.264Z,34.21
2022-07-25T17:44:29.285Z,34.25
2022-07-25T17:46:56.378Z,34.23
2022-07-25T17:49:23.999Z,34.09
2022-07-25T17:51:51.433Z,33.94
2022-07-25T17:54:18.403Z,33.63
2022-07-25T17:56:45.760Z,33.36
2022-07-25T17:59:13.294Z,33.43
2022-07-25T18:01:40.622Z,33.42
2022-07-25T18:04:08.329Z,33.40
2022-07-25T18:06:36.024Z,33.45
2022-07-25T18:09:03.334Z,33.40
2022-07-25T18:11:30.515Z,33.24
2022-07-25T18:13:59.994Z,33.17
2022-07-25T18:16:27.251Z,33.02
2022-07-25T18:18:54.270Z,32.90
2022-07-25T18:21:21.579Z,32.97
2022-07-25T18:23:48.517Z,33.09
2022-07-25T18:26:15.694Z,33.02
2022-07-25T18:28:42.764Z,32.89
2022-07-25T18:31:11.013Z,32.84
2022-07-25T18:33:37.995Z,32.85
2022-07-25T18:36:07.776Z,32.82
2022-07-25T18:38:36.492Z,32.77
2022-07-25T18:41:28.025Z,32.71
2022-07-25T18:43:53.513Z,32.68
2022-07-25T18:46:20.676Z,32.61
2022-07-25T18:48:48.071Z,32.46
2022-07-25T18:51:15.226Z,32.49
2022-07-25T18:53:47.448Z,32.47
2022-07-25T18:56:16.438Z,32.33
2022-07-25T18:58:43.870Z,32.21
2022-07-25T19:01:10.958Z,32.06
2022-07-25T19:03:38.720Z,32.08
2022-07-25T19:06:07.676Z,32.03
2022-07-25T19:08:35.017Z,32.09
2022-07-25T19:11:02.063Z,32.13
2022-07-25T19:13:52.055Z,32.07
2022-07-25T19:16:16.275Z,31.97
2022-07-25T19:18:43.625Z,31.98
2022-07-25T19:21:10.644Z,31.86
2022-07-25T19:23:37.666Z,31.74
2022-07-25T19:26:04.773Z,31.69
2022-07-25T19:28:32.231Z,31.80
2022-07-25T19:30:59.389Z,31.82
2022-07-25T19:33:34.750Z,31.80
2022-07-25T19:36:04.438Z,31.69
2022-07-25T19:38:31.766Z,31.63
2022-07-25T19:40:59.309Z,31.56
2022-07-25T19:43:26.687Z,31.56
2022-07-25T19:45:54.191Z,31.41
2022-07-25T19:48:24.055Z,31.29
2022-07-25T19:50:52.792Z,31.15
2022-07-25T19:53:21.272Z,31.10
2022-07-25T19:55:50.242Z,31.03
2022-07-25T19:58:17.161Z,30.96
2022-07-25T20:00:44.135Z,30.92
2022-07-25T20:03:11.123Z,30.88
2022-07-25T20:05:39.418Z,30.83
2022-07-25T20:08:06.812Z,30.77
2022-07-25T20:10:34.077Z,30.54
2022-07-25T20:13:01.619Z,30.53
2022-07-25T20:15:29.675Z,30.30
2022-07-25T20:17:57.331Z,30.31
2022-07-25T20:20:25.831Z,30.29
2022-07-25T20:22:53.460Z,30.27
2022-07-25T20:25:21.569Z,30.20
2022-07-25T20:27:51.602Z,30.13
2022-07-25T20:30:19.272Z,29.91
2022-07-25T20:32:46.562Z,29.87
2022-07-25T20:35:13.857Z,29.84
2022-07-25T20:37:40.803Z,29.80
2022-07-25T20:40:09.593Z,29.76
2022-07-25T20:42:37.382Z,29.70
2022-07-25T20:45:06.223Z,29.72
2022-07-25T20:47:34.331Z,29.63
2022-07-25T20:50:01.771Z,29.56
2022-07-25T20:52:30.423Z,29.39
2022-07-25T20:54:57.522Z,29.22
2022-07-25T20:57:24.565Z,28.96
2022-07-25T20:59:51.837Z,28.90
2022-07-25T21:02:18.896Z,28.93
2022-07-25T21:04:48.964Z,28.78
2022-07-25T21:07:17.216Z,28.63
2022-07-25T21:09:45.196Z,28.62
2022-07-25T21:12:12.183Z,28.55
2022-07-25T21:14:39.283Z,28.47
2022-07-25T21:17:06.396Z,28.48
2022-07-25T21:19:33.653Z,28.46
2022-07-25T21:22:02.105Z,28.46
2022-07-25T21:24:29.207Z,28.38
2022-07-25T21:26:56.175Z,28.31
2022-07-25T21:29:23.200Z,28.15
2022-07-25T21:31:50.260Z,28.06
2022-07-25T21:34:17.444Z,28.08
2022-07-25T21:36:44.332Z,28.05
2022-07-25T21:39:11.357Z,28.01
2022-07-25T21:41:38.448Z,27.96
2022-07-25T21:44:05.684Z,27.95
2022-07-25T21:46:32.671Z,27.82
2022-07-25T21:49:37.995Z,27.86
2022-07-25T21:52:05.967Z,27.76
2022-07-25T21:54:33.337Z,27.63
2022-07-25T21:57:00.402Z,27.54
2022-07-25T21:59:27.291Z,27.34
2022-07-25T22:01:54.314Z,27.19
2022-07-25T22:04:21.516Z,27.17
2022-07-25T22:06:48.642Z,27.31
2022-07-25T22:09:15.841Z,27.35
2022-07-25T22:11:46.535Z,27.32
2022-07-25T22:14:14.994Z,27.29
2022-07-25T22:16:42.708Z,27.26
2022-07-25T22:19:10.308Z,27.25
2022-07-25T22:21:37.639Z,27.22
2022-07-25T22:24:05.079Z,27.18
2022-07-25T22:26:32.071Z,27.12
2022-07-25T22:28:59.442Z,27.02
2022-07-25T22:31:26.633Z,27.02
2022-07-25T22:33:53.771Z,26.96
2022-07-25T22:36:20.831Z,26.96
2022-07-25T22:38:48.064Z,26.80
2022-07-25T22:41:15.082Z,26.86
2022-07-25T22:43:57.788Z,26.73
2022-07-25T22:46:30.661Z,26.75
2022-07-25T22:48:58.841Z,26.74
2022-07-25T22:51:26.942Z,26.69
2022-07-25T22:53:54.220Z,26.66
2022-07-25T22:56:22.101Z,26.63
2022-07-25T22:58:49.539Z,26.56
2022-07-25T23:01:18.044Z,26.42
2022-07-25T23:03:45.898Z,26.23
2022-07-25T23:06:13.376Z,26.00
2022-07-25T23:08:40.372Z,25.95
2022-07-25T23:11:07.487Z,25.99
2022-07-25T23:13:35.794Z,25.90
2022-07-25T23:16:04.359Z,25.79
2022-07-25T23:18:32.368Z,25.89
2022-07-25T23:21:00.475Z,25.93
2022-07-25T23:23:27.531Z,25.93
2022-07-25T23:25:54.369Z,25.95
2022-07-25T23:28:21.492Z,25.96
2022-07-25T23:30:48.584Z,25.88
2022-07-25T23:33:15.557Z,25.80
2022-07-25T23:35:42.552Z,25.61
2022-07-25T23:38:11.117Z,25.58
2022-07-25T23:40:38.134Z,25.55
2022-07-25T23:43:05.139Z,25.60
2022-07-25T23:45:32.659Z,25.49
2022-07-25T23:48:00.124Z,25.51
2022-07-25T23:50:27.075Z,25.50
2022-07-25T23:52:54.114Z,25.53
2022-07-25T23:55:21.053Z,25.53
2022-07-25T23:57:48.120Z,25.49
